sensor_id;sensor_type;location;lat;lon;timestamp;P1;durP1;ratioP1;P2;durP2;ratioP2
13560;SDS011;6852;51.686;5.314;2022-11-20T00:01:29;14.00;;;7.77;;
13560;SDS011;6852;51.686;5.314;2022-11-20T00:03:56;13.57;;;7.43;;
13560;SDS011;6852;51.686;5.314;2022-11-20T00:06:24;11.60;;;7.80;;
13560;SDS011;6852;51.686;5.314;2022-11-20T00:08:56;12.70;;;7.43;;
13560;SDS011;6852;51.686;5.314;2022-11-20T00:11:25;12.30;;;7.77;;
13560;SDS011;6852;51.686;5.314;2022-11-20T00:13:54;13.30;;;7.90;;
13560;SDS011;6852;51.686;5.314;2022-11-20T00:16:23;11.03;;;7.13;;
13560;SDS011;6852;51.686;5.314;2022-11-20T00:18:52;12.37;;;7.63;;
13560;SDS011;6852;51.686;5.314;2022-11-20T00:21:23;11.97;;;7.53;;
13560;SDS011;6852;51.686;5.314;2022-11-20T00:23:52;13.63;;;8.80;;
13560;SDS011;6852;51.686;5.314;2022-11-20T00:26:21;10.93;;;7.53;;
13560;SDS011;6852;51.686;5.314;2022-11-20T00:28:49;13.10;;;7.67;;
13560;SDS011;6852;51.686;5.314;2022-11-20T00:31:17;12.83;;;7.90;;
13560;SDS011;6852;51.686;5.314;2022-11-20T00:33:45;12.37;;;7.83;;
13560;SDS011;6852;51.686;5.314;2022-11-20T00:36:15;12.50;;;7.77;;
13560;SDS011;6852;51.686;5.314;2022-11-20T00:38:44;12.97;;;8.10;;
13560;SDS011;6852;51.686;5.314;2022-11-20T00:41:12;12.63;;;7.80;;
13560;SDS011;6852;51.686;5.314;2022-11-20T00:43:40;14.03;;;6.90;;
13560;SDS011;6852;51.686;5.314;2022-11-20T00:46:13;11.20;;;7.37;;
13560;SDS011;6852;51.686;5.314;2022-11-20T00:48:41;10.97;;;7.07;;
13560;SDS011;6852;51.686;5.314;2022-11-20T00:51:09;12.90;;;7.73;;
13560;SDS011;6852;51.686;5.314;2022-11-20T00:53:39;16.00;;;7.80;;
13560;SDS011;6852;51.686;5.314;2022-11-20T00:56:06;10.77;;;7.27;;
13560;SDS011;6852;51.686;5.314;2022-11-20T00:58:36;12.70;;;7.60;;
13560;SDS011;6852;51.686;5.314;2022-11-20T01:01:06;13.20;;;6.90;;
13560;SDS011;6852;51.686;5.314;2022-11-20T01:03:38;11.07;;;7.20;;
13560;SDS011;6852;51.686;5.314;2022-11-20T01:06:11;11.90;;;6.73;;
13560;SDS011;6852;51.686;5.314;2022-11-20T01:08:42;11.67;;;7.43;;
13560;SDS011;6852;51.686;5.314;2022-11-20T01:11:11;10.17;;;7.20;;
13560;SDS011;6852;51.686;5.314;2022-11-20T01:13:40;11.10;;;7.37;;
13560;SDS011;6852;51.686;5.314;2022-11-20T01:16:10;13.63;;;7.73;;
13560;SDS011;6852;51.686;5.314;2022-11-20T01:18:38;10.53;;;6.70;;
13560;SDS011;6852;51.686;5.314;2022-11-20T01:21:08;12.70;;;7.83;;
13560;SDS011;6852;51.686;5.314;2022-11-20T01:23:37;11.87;;;7.30;;
13560;SDS011;6852;51.686;5.314;2022-11-20T01:26:06;10.43;;;7.23;;
13560;SDS011;6852;51.686;5.314;2022-11-20T01:28:34;15.50;;;8.30;;
13560;SDS011;6852;51.686;5.314;2022-11-20T01:31:10;14.20;;;7.47;;
13560;SDS011;6852;51.686;5.314;2022-11-20T01:33:48;14.03;;;8.37;;
13560;SDS011;6852;51.686;5.314;2022-11-20T01:36:18;12.17;;;7.03;;
13560;SDS011;6852;51.686;5.314;2022-11-20T01:38:45;12.97;;;7.73;;
13560;SDS011;6852;51.686;5.314;2022-11-20T01:41:13;11.60;;;7.13;;
13560;SDS011;6852;51.686;5.314;2022-11-20T01:44:01;13.00;;;7.27;;
13560;SDS011;6852;51.686;5.314;2022-11-20T01:46:33;12.53;;;7.87;;
13560;SDS011;6852;51.686;5.314;2022-11-20T01:49:07;13.23;;;7.73;;
13560;SDS011;6852;51.686;5.314;2022-11-20T01:51:44;10.67;;;7.07;;
13560;SDS011;6852;51.686;5.314;2022-11-20T01:54:16;11.67;;;7.20;;
13560;SDS011;6852;51.686;5.314;2022-11-20T01:56:45;11.37;;;6.90;;
13560;SDS011;6852;51.686;5.314;2022-11-20T01:59:16;11.20;;;6.83;;
13560;SDS011;6852;51.686;5.314;2022-11-20T02:01:45;11.37;;;7.03;;
13560;SDS011;6852;51.686;5.314;2022-11-20T02:04:13;13.23;;;7.57;;
13560;SDS011;6852;51.686;5.314;2022-11-20T02:06:44;12.13;;;7.43;;
13560;SDS011;6852;51.686;5.314;2022-11-20T02:09:15;12.87;;;7.70;;
13560;SDS011;6852;51.686;5.314;2022-11-20T02:11:43;12.33;;;7.60;;
13560;SDS011;6852;51.686;5.314;2022-11-20T02:14:10;11.63;;;7.93;;
13560;SDS011;6852;51.686;5.314;2022-11-20T02:16:37;13.07;;;8.03;;
13560;SDS011;6852;51.686;5.314;2022-11-20T02:19:13;13.13;;;8.33;;
13560;SDS011;6852;51.686;5.314;2022-11-20T02:22:02;13.67;;;7.73;;
13560;SDS011;6852;51.686;5.314;2022-11-20T02:24:36;13.13;;;8.37;;
13560;SDS011;6852;51.686;5.314;2022-11-20T02:27:05;11.10;;;6.77;;
13560;SDS011;6852;51.686;5.314;2022-11-20T02:29:42;13.23;;;7.77;;
13560;SDS011;6852;51.686;5.314;2022-11-20T02:34:50;11.13;;;7.77;;
13560;SDS011;6852;51.686;5.314;2022-11-20T02:37:17;13.50;;;7.20;;
13560;SDS011;6852;51.686;5.314;2022-11-20T02:39:46;12.40;;;8.00;;
13560;SDS011;6852;51.686;5.314;2022-11-20T02:42:15;13.60;;;7.83;;
13560;SDS011;6852;51.686;5.314;2022-11-20T02:44:41;12.70;;;7.70;;
13560;SDS011;6852;51.686;5.314;2022-11-20T02:47:08;12.23;;;7.77;;
13560;SDS011;6852;51.686;5.314;2022-11-20T02:49:35;12.87;;;7.47;;
13560;SDS011;6852;51.686;5.314;2022-11-20T02:52:02;13.77;;;8.97;;
13560;SDS011;6852;51.686;5.314;2022-11-20T02:54:29;13.30;;;8.03;;
13560;SDS011;6852;51.686;5.314;2022-11-20T02:56:55;11.87;;;8.13;;
13560;SDS011;6852;51.686;5.314;2022-11-20T02:59:22;15.03;;;8.47;;
13560;SDS011;6852;51.686;5.314;2022-11-20T03:01:49;13.67;;;8.60;;
13560;SDS011;6852;51.686;5.314;2022-11-20T03:04:16;14.17;;;8.43;;
13560;SDS011;6852;51.686;5.314;2022-11-20T03:06:43;12.43;;;7.97;;
13560;SDS011;6852;51.686;5.314;2022-11-20T03:09:09;12.30;;;7.90;;
13560;SDS011;6852;51.686;5.314;2022-11-20T03:11:36;14.70;;;7.73;;
13560;SDS011;6852;51.686;5.314;2022-11-20T03:14:03;12.07;;;8.20;;
13560;SDS011;6852;51.686;5.314;2022-11-20T03:16:31;12.60;;;8.57;;
13560;SDS011;6852;51.686;5.314;2022-11-20T03:18:58;12.03;;;7.60;;
13560;SDS011;6852;51.686;5.314;2022-11-20T03:21:25;15.30;;;8.73;;
13560;SDS011;6852;51.686;5.314;2022-11-20T03:23:55;13.33;;;7.80;;
13560;SDS011;6852;51.686;5.314;2022-11-20T03:26:23;15.00;;;8.40;;
13560;SDS011;6852;51.686;5.314;2022-11-20T03:28:52;13.67;;;7.87;;
13560;SDS011;6852;51.686;5.314;2022-11-20T03:31:25;12.70;;;8.33;;
13560;SDS011;6852;51.686;5.314;2022-11-20T03:33:53;11.37;;;7.80;;
13560;SDS011;6852;51.686;5.314;2022-11-20T03:36:20;12.63;;;7.73;;
13560;SDS011;6852;51.686;5.314;2022-11-20T03:38:47;12.57;;;8.37;;
13560;SDS011;6852;51.686;5.314;2022-11-20T03:41:21;11.90;;;7.80;;
13560;SDS011;6852;51.686;5.314;2022-11-20T03:43:58;12.90;;;8.20;;
13560;SDS011;6852;51.686;5.314;2022-11-20T03:46:27;13.80;;;7.43;;
13560;SDS011;6852;51.686;5.314;2022-11-20T03:48:55;11.80;;;7.83;;
13560;SDS011;6852;51.686;5.314;2022-11-20T03:51:23;13.63;;;8.50;;
13560;SDS011;6852;51.686;5.314;2022-11-20T03:53:51;13.13;;;8.20;;
13560;SDS011;6852;51.686;5.314;2022-11-20T03:56:22;14.00;;;8.50;;
13560;SDS011;6852;51.686;5.314;2022-11-20T03:58:51;13.70;;;8.77;;
13560;SDS011;6852;51.686;5.314;2022-11-20T04:01:19;13.57;;;8.37;;
13560;SDS011;6852;51.686;5.314;2022-11-20T04:03:48;13.00;;;8.77;;
13560;SDS011;6852;51.686;5.314;2022-11-20T04:06:16;13.47;;;7.83;;
13560;SDS011;6852;51.686;5.314;2022-11-20T04:08:45;12.57;;;8.30;;
13560;SDS011;6852;51.686;5.314;2022-11-20T04:11:20;12.70;;;8.17;;
13560;SDS011;6852;51.686;5.314;2022-11-20T04:13:52;12.93;;;8.43;;
13560;SDS011;6852;51.686;5.314;2022-11-20T04:16:21;12.10;;;8.03;;
13560;SDS011;6852;51.686;5.314;2022-11-20T04:18:52;12.63;;;8.20;;
13560;SDS011;6852;51.686;5.314;2022-11-20T04:21:20;13.90;;;8.07;;
13560;SDS011;6852;51.686;5.314;2022-11-20T04:23:47;12.43;;;8.43;;
13560;SDS011;6852;51.686;5.314;2022-11-20T04:26:14;12.97;;;8.30;;
13560;SDS011;6852;51.686;5.314;2022-11-20T04:28:41;12.37;;;8.03;;
13560;SDS011;6852;51.686;5.314;2022-11-20T04:31:09;13.30;;;8.77;;
13560;SDS011;6852;51.686;5.314;2022-11-20T04:33:37;11.90;;;8.23;;
13560;SDS011;6852;51.686;5.314;2022-11-20T04:36:06;18.50;;;8.90;;
13560;SDS011;6852;51.686;5.314;2022-11-20T04:38:38;12.57;;;8.27;;
13560;SDS011;6852;51.686;5.314;2022-11-20T04:41:06;13.03;;;8.53;;
13560;SDS011;6852;51.686;5.314;2022-11-20T04:43:34;13.73;;;8.67;;
13560;SDS011;6852;51.686;5.314;2022-11-20T04:46:01;12.80;;;7.63;;
13560;SDS011;6852;51.686;5.314;2022-11-20T04:48:28;12.93;;;9.30;;
13560;SDS011;6852;51.686;5.314;2022-11-20T04:50:56;11.97;;;8.10;;
13560;SDS011;6852;51.686;5.314;2022-11-20T04:53:23;12.77;;;8.67;;
13560;SDS011;6852;51.686;5.314;2022-11-20T04:55:50;11.97;;;8.10;;
13560;SDS011;6852;51.686;5.314;2022-11-20T04:58:17;13.33;;;8.10;;
13560;SDS011;6852;51.686;5.314;2022-11-20T05:00:43;15.00;;;8.73;;
13560;SDS011;6852;51.686;5.314;2022-11-20T05:03:10;12.47;;;7.90;;
13560;SDS011;6852;51.686;5.314;2022-11-20T05:05:37;12.53;;;7.97;;
13560;SDS011;6852;51.686;5.314;2022-11-20T05:08:04;14.10;;;8.70;;
13560;SDS011;6852;51.686;5.314;2022-11-20T05:10:30;12.30;;;8.47;;
13560;SDS011;6852;51.686;5.314;2022-11-20T05:12:57;12.43;;;7.97;;
13560;SDS011;6852;51.686;5.314;2022-11-20T05:15:24;10.77;;;7.73;;
13560;SDS011;6852;51.686;5.314;2022-11-20T05:17:51;12.13;;;7.87;;
13560;SDS011;6852;51.686;5.314;2022-11-20T05:20:19;13.83;;;7.97;;
13560;SDS011;6852;51.686;5.314;2022-11-20T05:22:46;9.97;;;7.30;;
13560;SDS011;6852;51.686;5.314;2022-11-20T05:25:13;11.10;;;7.80;;
13560;SDS011;6852;51.686;5.314;2022-11-20T05:27:40;14.10;;;8.70;;
13560;SDS011;6852;51.686;5.314;2022-11-20T05:30:07;12.90;;;8.00;;
13560;SDS011;6852;51.686;5.314;2022-11-20T05:32:34;10.73;;;7.07;;
13560;SDS011;6852;51.686;5.314;2022-11-20T05:35:01;12.50;;;7.63;;
13560;SDS011;6852;51.686;5.314;2022-11-20T05:37:27;13.77;;;8.50;;
13560;SDS011;6852;51.686;5.314;2022-11-20T05:39:54;12.67;;;8.03;;
13560;SDS011;6852;51.686;5.314;2022-11-20T05:42:21;13.90;;;7.83;;
13560;SDS011;6852;51.686;5.314;2022-11-20T05:45:00;12.70;;;7.93;;
13560;SDS011;6852;51.686;5.314;2022-11-20T05:47:31;12.47;;;8.60;;
13560;SDS011;6852;51.686;5.314;2022-11-20T05:49:59;14.27;;;8.13;;
13560;SDS011;6852;51.686;5.314;2022-11-20T05:52:29;10.97;;;7.93;;
13560;SDS011;6852;51.686;5.314;2022-11-20T05:54:56;14.33;;;8.63;;
13560;SDS011;6852;51.686;5.314;2022-11-20T05:57:23;14.90;;;8.57;;
13560;SDS011;6852;51.686;5.314;2022-11-20T05:59:50;13.50;;;8.33;;
13560;SDS011;6852;51.686;5.314;2022-11-20T06:02:17;12.50;;;7.77;;
13560;SDS011;6852;51.686;5.314;2022-11-20T06:04:44;11.80;;;7.80;;
13560;SDS011;6852;51.686;5.314;2022-11-20T06:07:10;13.90;;;8.60;;
13560;SDS011;6852;51.686;5.314;2022-11-20T06:09:37;12.87;;;7.83;;
13560;SDS011;6852;51.686;5.314;2022-11-20T06:12:04;12.00;;;8.17;;
13560;SDS011;6852;51.686;5.314;2022-11-20T06:14:31;13.80;;;8.17;;
13560;SDS011;6852;51.686;5.314;2022-11-20T06:16:58;14.50;;;8.67;;
13560;SDS011;6852;51.686;5.314;2022-11-20T06:19:25;12.83;;;8.43;;
13560;SDS011;6852;51.686;5.314;2022-11-20T06:21:51;14.43;;;8.17;;
13560;SDS011;6852;51.686;5.314;2022-11-20T06:24:18;12.20;;;8.33;;
13560;SDS011;6852;51.686;5.314;2022-11-20T06:26:45;12.87;;;8.03;;
13560;SDS011;6852;51.686;5.314;2022-11-20T06:29:12;13.47;;;8.40;;
13560;SDS011;6852;51.686;5.314;2022-11-20T06:31:38;13.80;;;8.17;;
13560;SDS011;6852;51.686;5.314;2022-11-20T06:34:05;12.87;;;8.23;;
13560;SDS011;6852;51.686;5.314;2022-11-20T06:36:33;15.20;;;8.40;;
13560;SDS011;6852;51.686;5.314;2022-11-20T06:38:59;12.53;;;7.90;;
13560;SDS011;6852;51.686;5.314;2022-11-20T06:41:27;14.53;;;8.10;;
13560;SDS011;6852;51.686;5.314;2022-11-20T06:43:54;14.00;;;9.13;;
13560;SDS011;6852;51.686;5.314;2022-11-20T06:46:21;12.50;;;8.10;;
13560;SDS011;6852;51.686;5.314;2022-11-20T06:48:48;12.77;;;7.93;;
13560;SDS011;6852;51.686;5.314;2022-11-20T06:51:15;17.63;;;9.57;;
13560;SDS011;6852;51.686;5.314;2022-11-20T06:53:42;13.40;;;8.83;;
13560;SDS011;6852;51.686;5.314;2022-11-20T06:56:09;15.13;;;8.00;;
13560;SDS011;6852;51.686;5.314;2022-11-20T06:58:37;13.43;;;8.73;;
13560;SDS011;6852;51.686;5.314;2022-11-20T07:01:05;16.10;;;9.70;;
13560;SDS011;6852;51.686;5.314;2022-11-20T07:03:36;16.53;;;9.17;;
13560;SDS011;6852;51.686;5.314;2022-11-20T07:06:04;13.80;;;8.57;;
13560;SDS011;6852;51.686;5.314;2022-11-20T07:08:31;18.03;;;9.50;;
13560;SDS011;6852;51.686;5.314;2022-11-20T07:10:59;15.83;;;9.23;;
13560;SDS011;6852;51.686;5.314;2022-11-20T07:13:27;12.53;;;8.30;;
13560;SDS011;6852;51.686;5.314;2022-11-20T07:15:55;13.97;;;8.73;;
13560;SDS011;6852;51.686;5.314;2022-11-20T07:18:24;15.57;;;9.43;;
13560;SDS011;6852;51.686;5.314;2022-11-20T07:20:51;17.43;;;9.73;;
13560;SDS011;6852;51.686;5.314;2022-11-20T07:23:18;14.13;;;9.10;;
13560;SDS011;6852;51.686;5.314;2022-11-20T07:25:45;14.47;;;8.10;;
13560;SDS011;6852;51.686;5.314;2022-11-20T07:28:13;13.17;;;9.27;;
13560;SDS011;6852;51.686;5.314;2022-11-20T07:30:40;12.33;;;8.30;;
13560;SDS011;6852;51.686;5.314;2022-11-20T07:33:06;16.83;;;9.97;;
13560;SDS011;6852;51.686;5.314;2022-11-20T07:35:33;14.90;;;9.03;;
13560;SDS011;6852;51.686;5.314;2022-11-20T07:38:00;16.53;;;9.73;;
13560;SDS011;6852;51.686;5.314;2022-11-20T07:40:27;16.53;;;9.07;;
13560;SDS011;6852;51.686;5.314;2022-11-20T07:42:54;14.23;;;9.43;;
13560;SDS011;6852;51.686;5.314;2022-11-20T07:45:23;13.27;;;8.20;;
13560;SDS011;6852;51.686;5.314;2022-11-20T07:47:50;14.50;;;9.77;;
13560;SDS011;6852;51.686;5.314;2022-11-20T07:50:18;17.37;;;9.90;;
13560;SDS011;6852;51.686;5.314;2022-11-20T07:52:45;19.20;;;10.37;;
13560;SDS011;6852;51.686;5.314;2022-11-20T07:55:12;15.73;;;9.87;;
13560;SDS011;6852;51.686;5.314;2022-11-20T07:57:39;14.80;;;9.53;;
13560;SDS011;6852;51.686;5.314;2022-11-20T08:00:06;16.03;;;9.80;;
13560;SDS011;6852;51.686;5.314;2022-11-20T08:02:38;18.07;;;9.67;;
13560;SDS011;6852;51.686;5.314;2022-11-20T08:05:05;15.07;;;9.57;;
13560;SDS011;6852;51.686;5.314;2022-11-20T08:07:37;15.70;;;9.07;;
13560;SDS011;6852;51.686;5.314;2022-11-20T08:10:09;13.77;;;9.67;;
13560;SDS011;6852;51.686;5.314;2022-11-20T08:12:47;14.10;;;9.10;;
13560;SDS011;6852;51.686;5.314;2022-11-20T08:15:34;15.80;;;9.67;;
13560;SDS011;6852;51.686;5.314;2022-11-20T08:18:06;14.93;;;10.03;;
13560;SDS011;6852;51.686;5.314;2022-11-20T08:20:53;15.97;;;9.50;;
13560;SDS011;6852;51.686;5.314;2022-11-20T08:23:20;16.53;;;10.70;;
13560;SDS011;6852;51.686;5.314;2022-11-20T08:25:49;17.63;;;9.87;;
13560;SDS011;6852;51.686;5.314;2022-11-20T08:28:17;13.83;;;9.27;;
13560;SDS011;6852;51.686;5.314;2022-11-20T08:30:47;16.57;;;9.40;;
13560;SDS011;6852;51.686;5.314;2022-11-20T08:33:14;15.90;;;9.57;;
13560;SDS011;6852;51.686;5.314;2022-11-20T08:35:43;14.67;;;9.80;;
13560;SDS011;6852;51.686;5.314;2022-11-20T08:38:10;16.53;;;10.17;;
13560;SDS011;6852;51.686;5.314;2022-11-20T08:40:37;15.97;;;9.87;;
13560;SDS011;6852;51.686;5.314;2022-11-20T08:43:03;15.27;;;10.40;;
13560;SDS011;6852;51.686;5.314;2022-11-20T08:45:30;16.63;;;9.77;;
13560;SDS011;6852;51.686;5.314;2022-11-20T08:48:00;13.80;;;9.03;;
13560;SDS011;6852;51.686;5.314;2022-11-20T08:50:29;18.90;;;10.17;;
13560;SDS011;6852;51.686;5.314;2022-11-20T08:53:04;14.60;;;9.87;;
13560;SDS011;6852;51.686;5.314;2022-11-20T08:55:32;16.83;;;9.80;;
13560;SDS011;6852;51.686;5.314;2022-11-20T08:58:04;17.33;;;10.03;;
13560;SDS011;6852;51.686;5.314;2022-11-20T09:00:34;15.07;;;9.83;;
13560;SDS011;6852;51.686;5.314;2022-11-20T09:03:01;14.20;;;9.20;;
13560;SDS011;6852;51.686;5.314;2022-11-20T09:05:28;17.27;;;10.63;;
13560;SDS011;6852;51.686;5.314;2022-11-20T09:07:56;16.80;;;10.67;;
13560;SDS011;6852;51.686;5.314;2022-11-20T09:10:23;16.20;;;10.60;;
13560;SDS011;6852;51.686;5.314;2022-11-20T09:12:51;18.77;;;10.50;;
13560;SDS011;6852;51.686;5.314;2022-11-20T09:15:18;17.60;;;11.60;;
13560;SDS011;6852;51.686;5.314;2022-11-20T09:17:52;18.43;;;9.83;;
13560;SDS011;6852;51.686;5.314;2022-11-20T09:20:19;15.77;;;10.20;;
13560;SDS011;6852;51.686;5.314;2022-11-20T09:22:46;15.93;;;10.07;;
13560;SDS011;6852;51.686;5.314;2022-11-20T09:25:14;19.23;;;10.60;;
13560;SDS011;6852;51.686;5.314;2022-11-20T09:27:41;17.23;;;10.93;;
13560;SDS011;6852;51.686;5.314;2022-11-20T09:30:10;15.73;;;10.70;;
13560;SDS011;6852;51.686;5.314;2022-11-20T09:32:38;18.33;;;10.40;;
13560;SDS011;6852;51.686;5.314;2022-11-20T09:35:05;20.00;;;11.03;;
13560;SDS011;6852;51.686;5.314;2022-11-20T09:37:32;18.43;;;11.47;;
13560;SDS011;6852;51.686;5.314;2022-11-20T09:39:59;18.97;;;11.10;;
13560;SDS011;6852;51.686;5.314;2022-11-20T09:50:40;17.00;;;11.37;;
13560;SDS011;6852;51.686;5.314;2022-11-20T09:56:19;18.57;;;11.20;;
13560;SDS011;6852;51.686;5.314;2022-11-20T09:58:49;17.67;;;10.90;;
13560;SDS011;6852;51.686;5.314;2022-11-20T10:01:18;17.17;;;11.33;;
13560;SDS011;6852;51.686;5.314;2022-11-20T10:06:52;18.03;;;11.17;;
13560;SDS011;6852;51.686;5.314;2022-11-20T10:09:53;18.07;;;11.63;;
13560;SDS011;6852;51.686;5.314;2022-11-20T10:12:27;21.50;;;13.23;;
13560;SDS011;6852;51.686;5.314;2022-11-20T10:18:01;16.00;;;10.37;;
13560;SDS011;6852;51.686;5.314;2022-11-20T10:20:53;17.87;;;11.23;;
13560;SDS011;6852;51.686;5.314;2022-11-20T10:31:40;17.13;;;11.87;;
13560;SDS011;6852;51.686;5.314;2022-11-20T10:37:14;27.33;;;16.63;;
13560;SDS011;6852;51.686;5.314;2022-11-20T10:39:53;26.50;;;16.13;;
13560;SDS011;6852;51.686;5.314;2022-11-20T10:45:49;20.60;;;12.27;;
13560;SDS011;6852;51.686;5.314;2022-11-20T10:48:20;22.07;;;13.00;;
13560;SDS011;6852;51.686;5.314;2022-11-20T10:50:53;23.53;;;12.80;;
13560;SDS011;6852;51.686;5.314;2022-11-20T10:56:41;21.43;;;13.10;;
13560;SDS011;6852;51.686;5.314;2022-11-20T11:01:54;23.13;;;12.90;;
13560;SDS011;6852;51.686;5.314;2022-11-20T11:04:37;24.80;;;14.10;;
13560;SDS011;6852;51.686;5.314;2022-11-20T11:07:19;23.87;;;13.37;;
13560;SDS011;6852;51.686;5.314;2022-11-20T11:09:53;25.10;;;13.30;;
13560;SDS011;6852;51.686;5.314;2022-11-20T11:12:21;25.03;;;12.63;;
13560;SDS011;6852;51.686;5.314;2022-11-20T11:14:57;26.20;;;13.40;;
13560;SDS011;6852;51.686;5.314;2022-11-20T11:20:01;29.03;;;15.50;;
13560;SDS011;6852;51.686;5.314;2022-11-20T11:22:29;28.40;;;12.93;;
13560;SDS011;6852;51.686;5.314;2022-11-20T11:24:58;28.23;;;14.00;;
13560;SDS011;6852;51.686;5.314;2022-11-20T11:27:26;26.13;;;13.40;;
13560;SDS011;6852;51.686;5.314;2022-11-20T11:30:11;30.33;;;16.37;;
13560;SDS011;6852;51.686;5.314;2022-11-20T11:32:42;29.66;;;15.60;;
13560;SDS011;6852;51.686;5.314;2022-11-20T11:35:19;28.50;;;15.73;;
13560;SDS011;6852;51.686;5.314;2022-11-20T11:37:52;27.10;;;15.30;;
13560;SDS011;6852;51.686;5.314;2022-11-20T11:40:31;29.23;;;15.03;;
13560;SDS011;6852;51.686;5.314;2022-11-20T11:43:01;28.90;;;15.23;;
13560;SDS011;6852;51.686;5.314;2022-11-20T11:45:53;36.03;;;15.73;;
13560;SDS011;6852;51.686;5.314;2022-11-20T11:48:22;31.07;;;15.47;;
13560;SDS011;6852;51.686;5.314;2022-11-20T11:50:49;28.80;;;14.03;;
13560;SDS011;6852;51.686;5.314;2022-11-20T11:53:18;30.97;;;16.00;;
13560;SDS011;6852;51.686;5.314;2022-11-20T11:55:58;33.03;;;16.67;;
13560;SDS011;6852;51.686;5.314;2022-11-20T11:58:46;31.07;;;15.10;;
13560;SDS011;6852;51.686;5.314;2022-11-20T12:01:20;28.60;;;15.63;;
13560;SDS011;6852;51.686;5.314;2022-11-20T12:04:17;28.40;;;14.53;;
13560;SDS011;6852;51.686;5.314;2022-11-20T12:07:08;31.43;;;16.03;;
13560;SDS011;6852;51.686;5.314;2022-11-20T12:10:02;34.17;;;15.97;;
13560;SDS011;6852;51.686;5.314;2022-11-20T12:12:36;33.80;;;15.93;;
13560;SDS011;6852;51.686;5.314;2022-11-20T12:15:13;33.17;;;18.13;;
13560;SDS011;6852;51.686;5.314;2022-11-20T12:17:49;35.83;;;19.70;;
13560;SDS011;6852;51.686;5.314;2022-11-20T12:20:16;36.67;;;18.90;;
13560;SDS011;6852;51.686;5.314;2022-11-20T12:22:52;38.93;;;19.23;;
13560;SDS011;6852;51.686;5.314;2022-11-20T12:25:43;41.53;;;18.00;;
13560;SDS011;6852;51.686;5.314;2022-11-20T12:28:30;35.67;;;16.50;;
13560;SDS011;6852;51.686;5.314;2022-11-20T12:36:56;37.10;;;17.43;;
13560;SDS011;6852;51.686;5.314;2022-11-20T12:40:24;39.17;;;18.73;;
13560;SDS011;6852;51.686;5.314;2022-11-20T13:00:56;39.53;;;17.73;;
13560;SDS011;6852;51.686;5.314;2022-11-20T13:03:37;42.93;;;19.20;;
13560;SDS011;6852;51.686;5.314;2022-11-20T13:06:14;43.70;;;19.10;;
13560;SDS011;6852;51.686;5.314;2022-11-20T13:08:45;39.10;;;19.47;;
13560;SDS011;6852;51.686;5.314;2022-11-20T13:11:41;35.73;;;19.20;;
13560;SDS011;6852;51.686;5.314;2022-11-20T13:14:42;39.77;;;18.13;;
13560;SDS011;6852;51.686;5.314;2022-11-20T13:17:25;33.77;;;17.40;;
13560;SDS011;6852;51.686;5.314;2022-11-20T13:20:00;36.47;;;19.63;;
13560;SDS011;6852;51.686;5.314;2022-11-20T13:22:42;40.17;;;18.43;;
13560;SDS011;6852;51.686;5.314;2022-11-20T13:25:35;37.40;;;18.73;;
13560;SDS011;6852;51.686;5.314;2022-11-20T13:28:59;40.10;;;20.33;;
13560;SDS011;6852;51.686;5.314;2022-11-20T13:30:55;46.77;;;18.60;;
13560;SDS011;6852;51.686;5.314;2022-11-20T13:36:04;37.10;;;19.37;;
13560;SDS011;6852;51.686;5.314;2022-11-20T13:38:48;40.20;;;19.37;;
13560;SDS011;6852;51.686;5.314;2022-11-20T13:44:06;39.97;;;19.90;;
13560;SDS011;6852;51.686;5.314;2022-11-20T13:46:51;46.93;;;19.37;;
13560;SDS011;6852;51.686;5.314;2022-11-20T13:49:20;38.70;;;19.53;;
13560;SDS011;6852;51.686;5.314;2022-11-20T14:00:56;38.67;;;19.37;;
13560;SDS011;6852;51.686;5.314;2022-11-20T14:03:24;38.67;;;18.03;;
13560;SDS011;6852;51.686;5.314;2022-11-20T14:06:25;38.23;;;17.60;;
13560;SDS011;6852;51.686;5.314;2022-11-20T14:08:55;38.07;;;18.77;;
13560;SDS011;6852;51.686;5.314;2022-11-20T14:11:23;36.57;;;17.80;;
13560;SDS011;6852;51.686;5.314;2022-11-20T14:16:23;37.73;;;17.37;;
13560;SDS011;6852;51.686;5.314;2022-11-20T14:18:51;36.03;;;18.27;;
13560;SDS011;6852;51.686;5.314;2022-11-20T14:21:26;39.97;;;17.77;;
13560;SDS011;6852;51.686;5.314;2022-11-20T14:24:05;40.73;;;18.10;;
13560;SDS011;6852;51.686;5.314;2022-11-20T14:26:32;34.93;;;17.23;;
13560;SDS011;6852;51.686;5.314;2022-11-20T14:29:00;34.27;;;17.90;;
13560;SDS011;6852;51.686;5.314;2022-11-20T14:31:27;37.17;;;18.27;;
13560;SDS011;6852;51.686;5.314;2022-11-20T14:33:54;38.13;;;18.37;;
13560;SDS011;6852;51.686;5.314;2022-11-20T14:36:22;35.27;;;18.60;;
13560;SDS011;6852;51.686;5.314;2022-11-20T14:38:51;37.80;;;18.50;;
13560;SDS011;6852;51.686;5.314;2022-11-20T14:41:22;37.10;;;18.00;;
13560;SDS011;6852;51.686;5.314;2022-11-20T14:43:54;39.03;;;19.03;;
13560;SDS011;6852;51.686;5.314;2022-11-20T14:46:23;46.87;;;19.33;;
13560;SDS011;6852;51.686;5.314;2022-11-20T14:48:55;41.20;;;18.93;;
13560;SDS011;6852;51.686;5.314;2022-11-20T14:51:28;36.73;;;18.13;;
13560;SDS011;6852;51.686;5.314;2022-11-20T14:54:16;38.13;;;18.50;;
13560;SDS011;6852;51.686;5.314;2022-11-20T14:56:57;39.73;;;18.33;;
13560;SDS011;6852;51.686;5.314;2022-11-20T14:59:31;39.83;;;19.60;;
13560;SDS011;6852;51.686;5.314;2022-11-20T15:02:05;38.90;;;18.83;;
13560;SDS011;6852;51.686;5.314;2022-11-20T15:04:51;40.43;;;20.13;;
13560;SDS011;6852;51.686;5.314;2022-11-20T15:07:26;38.20;;;18.23;;
13560;SDS011;6852;51.686;5.314;2022-11-20T15:09:59;37.57;;;20.63;;
13560;SDS011;6852;51.686;5.314;2022-11-20T15:12:26;44.17;;;19.10;;
13560;SDS011;6852;51.686;5.314;2022-11-20T15:14:54;43.20;;;19.47;;
13560;SDS011;6852;51.686;5.314;2022-11-20T15:17:21;40.20;;;20.80;;
13560;SDS011;6852;51.686;5.314;2022-11-20T15:19:48;46.50;;;20.90;;
13560;SDS011;6852;51.686;5.314;2022-11-20T15:22:15;41.33;;;18.40;;
13560;SDS011;6852;51.686;5.314;2022-11-20T15:24:45;47.60;;;20.80;;
13560;SDS011;6852;51.686;5.314;2022-11-20T15:27:12;40.90;;;19.60;;
13560;SDS011;6852;51.686;5.314;2022-11-20T15:29:40;44.87;;;21.10;;
13560;SDS011;6852;51.686;5.314;2022-11-20T15:32:08;42.50;;;19.83;;
13560;SDS011;6852;51.686;5.314;2022-11-20T15:34:38;41.10;;;18.53;;
13560;SDS011;6852;51.686;5.314;2022-11-20T15:37:05;35.93;;;18.33;;
13560;SDS011;6852;51.686;5.314;2022-11-20T15:39:32;37.53;;;19.70;;
13560;SDS011;6852;51.686;5.314;2022-11-20T15:41:59;42.20;;;17.90;;
13560;SDS011;6852;51.686;5.314;2022-11-20T15:44:26;41.63;;;19.53;;
13560;SDS011;6852;51.686;5.314;2022-11-20T15:46:52;37.07;;;18.50;;
13560;SDS011;6852;51.686;5.314;2022-11-20T15:49:19;41.87;;;18.87;;
13560;SDS011;6852;51.686;5.314;2022-11-20T15:51:49;34.43;;;16.97;;
13560;SDS011;6852;51.686;5.314;2022-11-20T15:54:17;40.60;;;18.07;;
13560;SDS011;6852;51.686;5.314;2022-11-20T15:56:49;36.27;;;17.97;;
13560;SDS011;6852;51.686;5.314;2022-11-20T15:59:19;42.10;;;18.57;;
13560;SDS011;6852;51.686;5.314;2022-11-20T16:01:46;34.07;;;15.80;;
13560;SDS011;6852;51.686;5.314;2022-11-20T16:04:14;41.87;;;16.50;;
13560;SDS011;6852;51.686;5.314;2022-11-20T16:06:42;38.17;;;17.67;;
13560;SDS011;6852;51.686;5.314;2022-11-20T16:09:09;37.63;;;15.90;;
13560;SDS011;6852;51.686;5.314;2022-11-20T16:11:36;33.43;;;16.30;;
13560;SDS011;6852;51.686;5.314;2022-11-20T16:14:04;37.10;;;17.53;;
13560;SDS011;6852;51.686;5.314;2022-11-20T16:16:50;36.20;;;16.20;;
13560;SDS011;6852;51.686;5.314;2022-11-20T16:19:17;31.37;;;15.67;;
13560;SDS011;6852;51.686;5.314;2022-11-20T16:21:44;33.60;;;16.33;;
13560;SDS011;6852;51.686;5.314;2022-11-20T16:24:12;35.73;;;16.10;;
13560;SDS011;6852;51.686;5.314;2022-11-20T16:26:40;38.27;;;15.60;;
13560;SDS011;6852;51.686;5.314;2022-11-20T16:29:07;34.03;;;15.43;;